createdAt,value
2019-05-22T00:02:36.054Z,13.80
2019-05-22T00:07:44.323Z,13.70
2019-05-22T00:12:51.591Z,13.70
2019-05-22T00:17:58.080Z,13.70
2019-05-22T00:23:11.443Z,13.60
2019-05-22T00:28:17.469Z,13.70
2019-05-22T00:33:22.908Z,13.70
2019-05-22T00:38:29.363Z,13.70
2019-05-22T00:43:39.699Z,13.70
2019-05-22T00:48:47.475Z,13.70
2019-05-22T00:54:10.288Z,13.60
2019-05-22T00:59:23.184Z,13.60
2019-05-22T01:04:35.398Z,13.70
2019-05-22T01:09:43.969Z,13.60
2019-05-22T01:14:50.063Z,13.70
2019-05-22T01:19:55.922Z,13.70
2019-05-22T01:25:03.174Z,13.70
2019-05-22T01:30:14.800Z,13.70
2019-05-22T01:35:30.239Z,13.70
2019-05-22T01:40:42.085Z,13.60
2019-05-22T01:45:56.042Z,13.60
2019-05-22T01:51:02.257Z,13.70
2019-05-22T01:56:10.657Z,13.70
2019-05-22T02:01:19.337Z,13.70
2019-05-22T02:06:24.699Z,13.60
2019-05-22T02:11:29.918Z,13.70
2019-05-22T02:16:36.383Z,13.70
2019-05-22T02:21:42.378Z,13.60
2019-05-22T02:26:48.863Z,13.60
2019-05-22T02:31:57.520Z,13.60
2019-05-22T02:37:02.502Z,13.60
2019-05-22T02:42:18.847Z,13.60
2019-05-22T02:47:24.742Z,13.60
2019-05-22T02:52:30.299Z,13.60
2019-05-22T02:57:35.481Z,13.60
2019-05-22T03:02:51.971Z,13.60
2019-05-22T03:07:58.434Z,13.50
2019-05-22T03:13:03.767Z,13.60
2019-05-22T03:18:10.086Z,13.60
2019-05-22T03:23:41.880Z,13.60
2019-05-22T03:28:49.201Z,13.60
2019-05-22T03:33:55.217Z,13.60
2019-05-22T03:39:01.008Z,13.60
2019-05-22T03:44:06.729Z,13.60
2019-05-22T03:49:28.966Z,13.60
2019-05-22T03:54:22.546Z,13.60
2019-05-22T03:59:27.419Z,13.50
2019-05-22T04:04:40.079Z,13.60
2019-05-22T04:09:46.307Z,13.60
2019-05-22T04:14:52.604Z,13.60
2019-05-22T04:19:58.849Z,13.50
2019-05-22T04:25:05.632Z,13.50
2019-05-22T04:30:12.705Z,13.50
2019-05-22T04:35:19.054Z,13.60
2019-05-22T04:40:53.995Z,13.50
2019-05-22T04:45:59.164Z,13.40
2019-05-22T04:51:24.949Z,13.40
2019-05-22T04:56:31.471Z,13.40
2019-05-22T05:01:35.910Z,13.40
2019-05-22T05:06:41.720Z,13.40
2019-05-22T05:11:45.980Z,13.50
2019-05-22T05:16:50.682Z,13.40
2019-05-22T05:21:56.527Z,13.50
2019-05-22T05:27:02.951Z,13.50
2019-05-22T05:32:08.084Z,13.50
2019-05-22T05:37:13.068Z,13.50
2019-05-22T05:42:19.373Z,13.40
2019-05-22T05:47:24.786Z,13.50
2019-05-22T05:52:30.336Z,13.50
2019-05-22T05:58:30.560Z,13.50
2019-05-22T06:03:40.123Z,13.50
2019-05-22T06:08:46.006Z,13.60
2019-05-22T06:13:52.043Z,13.60
2019-05-22T06:18:57.685Z,13.60
2019-05-22T06:24:33.232Z,13.60
2019-05-22T06:30:13.833Z,13.70
2019-05-22T06:35:20.607Z,13.70
2019-05-22T06:40:28.678Z,13.70
2019-05-22T06:45:35.656Z,13.70
2019-05-22T06:50:39.916Z,13.70
2019-05-22T06:55:45.390Z,13.70
2019-05-22T07:00:51.113Z,13.80
2019-05-22T07:05:56.974Z,13.80
2019-05-22T07:11:02.868Z,13.80
2019-05-22T07:16:08.067Z,13.80
2019-05-22T07:21:13.872Z,13.80
2019-05-22T07:26:18.234Z,13.80
2019-05-22T07:31:22.979Z,13.80
2019-05-22T07:36:32.036Z,13.80
2019-05-22T07:41:36.419Z,13.80
2019-05-22T07:46:40.557Z,13.90
2019-05-22T07:51:56.210Z,13.80
2019-05-22T07:56:53.829Z,14.00
2019-05-22T08:01:59.643Z,14.00
2019-05-22T08:07:06.964Z,13.90
2019-05-22T08:12:14.055Z,14.00
2019-05-22T08:17:20.803Z,14.00
2019-05-22T08:22:27.783Z,14.00
2019-05-22T08:27:34.324Z,14.10
2019-05-22T08:32:40.709Z,14.30
2019-05-22T08:37:47.897Z,14.40
2019-05-22T08:42:52.995Z,14.50
2019-05-22T08:47:58.349Z,14.60
2019-05-22T08:53:03.479Z,14.80
2019-05-22T08:58:09.759Z,14.70
2019-05-22T09:03:16.085Z,14.70
2019-05-22T09:08:22.130Z,14.70
2019-05-22T09:13:27.928Z,14.80
2019-05-22T09:18:33.665Z,14.80
2019-05-22T09:23:40.443Z,14.90
2019-05-22T09:28:45.752Z,14.90
2019-05-22T09:33:51.284Z,14.90
2019-05-22T09:38:57.124Z,14.80
2019-05-22T09:44:02.718Z,14.70
2019-05-22T09:49:10.315Z,14.60
2019-05-22T09:54:15.893Z,14.50
2019-05-22T09:59:21.873Z,14.40
2019-05-22T10:04:26.925Z,14.50
2019-05-22T10:09:33.340Z,14.50
2019-05-22T10:14:39.595Z,14.50
2019-05-22T10:19:45.888Z,14.50
2019-05-22T10:24:52.175Z,14.40
2019-05-22T10:29:59.071Z,14.50
2019-05-22T10:35:08.481Z,14.60
2019-05-22T10:40:15.441Z,14.80
2019-05-22T10:45:21.287Z,14.80
2019-05-22T10:50:27.335Z,15.00
2019-05-22T10:55:33.495Z,15.30
2019-05-22T11:00:39.418Z,15.50
2019-05-22T11:05:45.177Z,15.70
2019-05-22T11:10:50.407Z,15.90
2019-05-22T11:15:56.539Z,15.80
2019-05-22T11:21:02.694Z,15.90
2019-05-22T11:26:09.394Z,15.90
2019-05-22T11:31:13.907Z,15.90
2019-05-22T11:36:18.764Z,16.00
2019-05-22T11:41:23.606Z,16.10
2019-05-22T11:46:27.784Z,16.10
2019-05-22T11:51:32.222Z,16.40
2019-05-22T11:56:36.029Z,16.60
2019-05-22T12:01:41.055Z,16.70
2019-05-22T12:06:45.654Z,16.90
2019-05-22T12:11:51.028Z,16.90
2019-05-22T12:16:55.696Z,17.00
2019-05-22T12:22:00.625Z,16.90
2019-05-22T12:27:07.364Z,16.90
2019-05-22T12:32:13.489Z,17.20
2019-05-22T12:37:18.004Z,17.80
2019-05-22T12:42:25.052Z,18.00
2019-05-22T12:47:31.467Z,17.90
2019-05-22T12:52:39.282Z,18.50
2019-05-22T12:57:45.265Z,18.60
2019-05-22T13:02:53.659Z,19.00
2019-05-22T13:07:59.864Z,19.30
2019-05-22T13:13:05.185Z,19.80
2019-05-22T13:18:14.430Z,19.80
2019-05-22T13:23:22.241Z,20.00
2019-05-22T13:28:29.125Z,20.20
2019-05-22T13:33:35.240Z,20.50
2019-05-22T13:38:41.248Z,20.40
2019-05-22T13:43:47.733Z,20.70
2019-05-22T13:48:52.976Z,21.00
2019-05-22T13:53:59.314Z,21.00
2019-05-22T13:59:04.633Z,20.80
2019-05-22T14:04:10.424Z,20.60
2019-05-22T14:09:21.182Z,20.60
2019-05-22T14:14:26.046Z,21.20
2019-05-22T14:19:31.701Z,21.30
2019-05-22T14:24:36.859Z,21.10
2019-05-22T14:29:42.187Z,21.30
2019-05-22T14:34:47.795Z,21.10
2019-05-22T14:39:54.450Z,21.20
2019-05-22T14:45:00.067Z,21.20
2019-05-22T14:50:09.390Z,21.40
2019-05-22T14:55:15.042Z,21.70
2019-05-22T15:00:22.765Z,21.80
2019-05-22T15:05:28.759Z,21.80
2019-05-22T15:10:36.261Z,21.70
2019-05-22T15:15:43.293Z,21.90
2019-05-22T15:20:56.654Z,22.00
2019-05-22T15:26:02.060Z,21.90
2019-05-22T15:31:06.964Z,22.00
2019-05-22T15:36:13.276Z,22.20
2019-05-22T15:41:18.242Z,22.20
2019-05-22T15:46:24.060Z,22.30
2019-05-22T15:51:32.710Z,22.30
2019-05-22T15:56:38.989Z,22.20
2019-05-22T16:01:45.262Z,22.20
2019-05-22T16:06:51.303Z,21.90
2019-05-22T16:11:56.108Z,21.80
2019-05-22T16:17:02.142Z,21.60
2019-05-22T16:22:07.631Z,21.90
2019-05-22T16:27:13.815Z,21.70
2019-05-22T16:32:21.334Z,21.70
2019-05-22T16:37:28.618Z,21.30
2019-05-22T16:42:37.970Z,21.20
2019-05-22T16:47:46.634Z,21.10
2019-05-22T16:52:53.649Z,21.00
2019-05-22T16:57:59.563Z,21.10
2019-05-22T17:03:07.220Z,20.80
2019-05-22T17:08:13.418Z,20.70
2019-05-22T17:13:19.520Z,20.40
2019-05-22T17:18:27.128Z,20.10
2019-05-22T17:23:32.757Z,19.90
2019-05-22T17:28:38.240Z,19.80
2019-05-22T17:33:44.396Z,19.80
2019-05-22T17:38:54.802Z,19.60
2019-05-22T17:44:01.867Z,19.50
2019-05-22T17:49:07.569Z,19.30
2019-05-22T17:54:12.993Z,19.20
2019-05-22T17:59:18.846Z,19.10
2019-05-22T18:04:24.621Z,18.90
2019-05-22T18:09:29.983Z,18.80
2019-05-22T18:14:36.268Z,18.50
2019-05-22T18:19:42.141Z,18.40
2019-05-22T18:24:47.535Z,18.10
2019-05-22T18:29:53.794Z,18.00
2019-05-22T18:35:00.123Z,17.90
2019-05-22T18:40:05.665Z,17.70
2019-05-22T18:45:12.481Z,17.30
2019-05-22T18:50:17.848Z,17.10
2019-05-22T18:55:23.131Z,17.00
2019-05-22T19:00:28.728Z,16.90
2019-05-22T19:05:34.478Z,16.60
2019-05-22T19:10:40.219Z,16.50
2019-05-22T19:15:43.952Z,16.30
2019-05-22T19:20:47.486Z,16.20
2019-05-22T19:25:51.201Z,16.00
2019-05-22T19:30:55.043Z,15.90
2019-05-22T19:35:58.755Z,15.70
2019-05-22T19:41:03.983Z,15.50
2019-05-22T19:46:09.721Z,15.40
2019-05-22T19:51:17.801Z,15.20
2019-05-22T19:56:24.148Z,15.10
2019-05-22T20:01:28.802Z,15.00
2019-05-22T20:06:33.401Z,14.70
2019-05-22T20:11:38.459Z,14.70
2019-05-22T20:16:42.940Z,14.50
2019-05-22T20:21:49.291Z,14.50
2019-05-22T20:26:53.743Z,14.20
2019-05-22T20:31:58.424Z,14.30
2019-05-22T20:37:06.799Z,14.20
2019-05-22T20:42:13.060Z,14.10
2019-05-22T20:47:23.938Z,14.10
2019-05-22T20:52:30.441Z,14.00
2019-05-22T20:57:35.862Z,13.80
2019-05-22T21:02:44.399Z,13.70
2019-05-22T21:07:53.878Z,13.60
2019-05-22T21:13:00.412Z,13.50
2019-05-22T21:18:07.016Z,13.50
2019-05-22T21:23:12.881Z,13.40
2019-05-22T21:28:18.489Z,13.30
2019-05-22T21:33:25.049Z,13.20
2019-05-22T21:38:30.827Z,13.20
2019-05-22T21:43:36.232Z,13.10
2019-05-22T21:48:42.083Z,13.00
2019-05-22T21:53:47.745Z,13.00
2019-05-22T21:58:53.714Z,12.80
2019-05-22T22:04:13.543Z,12.70
2019-05-22T22:09:20.517Z,12.60
2019-05-22T22:14:26.302Z,12.60
2019-05-22T22:19:33.650Z,12.50
2019-05-22T22:24:39.214Z,12.40
2019-05-22T22:29:44.511Z,12.40
2019-05-22T22:34:51.896Z,12.30
2019-05-22T22:39:57.066Z,12.30
2019-05-22T22:45:04.588Z,12.10
2019-05-22T22:50:13.080Z,12.10
2019-05-22T22:55:21.611Z,12.00
2019-05-22T23:00:38.594Z,12.00
2019-05-22T23:05:44.832Z,12.00
2019-05-22T23:10:50.543Z,11.90
2019-05-22T23:15:56.322Z,11.80
2019-05-22T23:20:59.575Z,11.80
2019-05-22T23:26:06.525Z,11.80
2019-05-22T23:31:12.436Z,11.60
2019-05-22T23:36:16.610Z,11.60
2019-05-22T23:41:23.178Z,11.60
2019-05-22T23:46:28.835Z,11.50
2019-05-22T23:51:32.738Z,11.40
2019-05-22T23:56:39.521Z,11.40
